createdAt,value
2022-12-18T00:01:16.345Z,-4.81
2022-12-18T00:04:03.062Z,-5.33
2022-12-18T00:06:49.417Z,-4.71
2022-12-18T00:09:39.985Z,-4.64
2022-12-18T00:12:23.884Z,-4.43
2022-12-18T00:15:08.067Z,-4.80
2022-12-18T00:17:51.596Z,-5.35
2022-12-18T00:20:41.020Z,-5.09
2022-12-18T00:23:24.745Z,-5.05
2022-12-18T00:26:14.607Z,-4.87
2022-12-18T00:29:09.025Z,-4.98
2022-12-18T00:31:52.497Z,-5.21
2022-12-18T00:34:36.050Z,-5.36
2022-12-18T00:37:20.393Z,-5.13
2022-12-18T00:40:09.041Z,-5.09
2022-12-18T00:42:56.433Z,-4.77
2022-12-18T00:45:40.317Z,-4.37
2022-12-18T00:48:24.343Z,-4.55
2022-12-18T00:51:09.840Z,-5.01
2022-12-18T00:53:53.841Z,-5.23
2022-12-18T00:56:48.446Z,-4.88
2022-12-18T00:59:32.475Z,-4.94
2022-12-18T01:02:16.032Z,-5.16
2022-12-18T01:05:00.024Z,-5.14
2022-12-18T01:07:43.462Z,-5.16
2022-12-18T01:10:27.786Z,-5.36
2022-12-18T01:13:14.729Z,-5.23
2022-12-18T01:15:58.619Z,-5.24
2022-12-18T01:18:42.498Z,-5.11
2022-12-18T01:21:25.966Z,-4.88
2022-12-18T01:24:13.197Z,-5.07
2022-12-18T01:26:58.230Z,-5.02
2022-12-18T01:29:42.005Z,-5.32
2022-12-18T01:32:25.484Z,-4.92
2022-12-18T01:35:09.442Z,-5.11
2022-12-18T01:37:56.712Z,-5.32
2022-12-18T01:40:40.179Z,-5.00
2022-12-18T01:43:23.807Z,-4.95
2022-12-18T01:46:07.512Z,-4.93
2022-12-18T01:48:58.973Z,-4.70
2022-12-18T01:51:43.919Z,-4.71
2022-12-18T01:54:28.607Z,-5.02
2022-12-18T01:57:12.745Z,-4.87
2022-12-18T02:00:04.555Z,-4.90
2022-12-18T02:02:57.280Z,-4.75
2022-12-18T02:05:59.801Z,-4.80
2022-12-18T02:09:19.777Z,-4.61
2022-12-18T02:12:14.744Z,-5.12
2022-12-18T02:15:18.596Z,-5.09
2022-12-18T02:18:29.575Z,-5.15
2022-12-18T02:21:38.482Z,-5.41
2022-12-18T02:24:56.666Z,-5.44
2022-12-18T02:27:44.849Z,-5.11
2022-12-18T02:30:36.079Z,-5.13
2022-12-18T02:33:22.533Z,-5.52
2022-12-18T02:36:12.802Z,-5.55
2022-12-18T02:38:58.841Z,-5.75
2022-12-18T02:41:43.650Z,-5.78
2022-12-18T02:44:27.835Z,-5.62
2022-12-18T02:47:15.483Z,-5.78
2022-12-18T02:50:06.974Z,-5.67
2022-12-18T02:53:09.149Z,-5.72
2022-12-18T02:56:16.564Z,-5.10
2022-12-18T02:59:12.621Z,-5.65
2022-12-18T03:02:08.219Z,-5.62
2022-12-18T03:05:11.737Z,-5.68
2022-12-18T03:08:22.509Z,-5.67
2022-12-18T03:11:11.200Z,-5.82
2022-12-18T03:14:00.194Z,-5.96
2022-12-18T03:16:48.114Z,-6.15
2022-12-18T03:19:34.269Z,-5.91
2022-12-18T03:22:21.096Z,-5.91
2022-12-18T03:25:14.299Z,-5.84
2022-12-18T03:28:06.440Z,-5.78
2022-12-18T03:31:00.158Z,-5.80
2022-12-18T03:33:55.478Z,-5.92
2022-12-18T03:36:44.742Z,-5.85
2022-12-18T03:39:28.876Z,-5.60
2022-12-18T03:42:36.390Z,-5.42
2022-12-18T03:45:38.904Z,-5.54
2022-12-18T03:48:42.421Z,-5.51
2022-12-18T03:51:49.610Z,-5.66
2022-12-18T03:54:37.210Z,-5.76
2022-12-18T03:57:33.226Z,-5.58
2022-12-18T04:00:21.478Z,-5.66
2022-12-18T04:03:26.153Z,-5.69
2022-12-18T04:06:12.523Z,-6.02
2022-12-18T04:09:00.327Z,-5.63
2022-12-18T04:11:45.408Z,-5.99
2022-12-18T04:14:30.817Z,-6.32
2022-12-18T04:17:14.389Z,-6.02
2022-12-18T04:19:57.858Z,-5.92
2022-12-18T04:22:42.048Z,-5.58
2022-12-18T04:25:25.853Z,-5.96
2022-12-18T04:28:21.631Z,-5.81
2022-12-18T04:31:05.797Z,-5.76
2022-12-18T04:33:49.440Z,-6.04
2022-12-18T04:36:33.441Z,-6.18
2022-12-18T04:39:17.062Z,-5.98
2022-12-18T04:42:00.845Z,-5.54
2022-12-18T04:44:45.789Z,-5.72
2022-12-18T04:47:29.243Z,-5.83
2022-12-18T04:50:12.762Z,-5.71
2022-12-18T04:52:56.608Z,-5.78
2022-12-18T04:55:40.087Z,-5.89
2022-12-18T04:58:23.541Z,-5.84
2022-12-18T05:01:08.607Z,-6.08
2022-12-18T05:03:53.243Z,-6.03
2022-12-18T05:06:36.732Z,-5.96
2022-12-18T05:09:20.218Z,-5.96
2022-12-18T05:12:03.886Z,-6.03
2022-12-18T05:14:47.328Z,-5.65
2022-12-18T05:17:30.811Z,-5.92
2022-12-18T05:20:14.354Z,-5.81
2022-12-18T05:22:57.903Z,-5.74
2022-12-18T05:25:41.337Z,-5.59
2022-12-18T05:28:28.271Z,-5.77
2022-12-18T05:31:12.355Z,-5.82
2022-12-18T05:33:55.948Z,-5.76
2022-12-18T05:36:39.416Z,-5.32
2022-12-18T05:39:22.844Z,-5.54
2022-12-18T05:42:06.266Z,-5.45
2022-12-18T05:44:49.757Z,-5.74
2022-12-18T05:47:33.521Z,-5.52
2022-12-18T05:50:17.085Z,-5.52
2022-12-18T05:53:00.502Z,-5.62
2022-12-18T05:55:45.559Z,-5.61
2022-12-18T05:58:29.108Z,-5.47
2022-12-18T06:01:18.139Z,-5.58
2022-12-18T06:04:01.748Z,-5.70
2022-12-18T06:06:45.326Z,-5.78
2022-12-18T06:09:30.446Z,-5.74
2022-12-18T06:12:13.887Z,-5.73
2022-12-18T06:14:57.342Z,-5.86
2022-12-18T06:17:41.245Z,-5.90
2022-12-18T06:20:27.924Z,-5.82
2022-12-18T06:23:13.978Z,-5.54
2022-12-18T06:25:57.971Z,-5.51
2022-12-18T06:28:41.489Z,-5.44
2022-12-18T06:31:26.907Z,-5.75
2022-12-18T06:34:10.452Z,-5.73
2022-12-18T06:36:53.938Z,-5.74
2022-12-18T06:39:37.379Z,-5.79
2022-12-18T06:42:24.690Z,-5.87
2022-12-18T06:45:08.972Z,-5.69
2022-12-18T06:47:52.576Z,-5.60
2022-12-18T06:50:36.300Z,-5.69
2022-12-18T06:53:19.750Z,-5.73
2022-12-18T06:56:10.746Z,-5.64
2022-12-18T06:58:54.599Z,-5.62
2022-12-18T07:01:38.213Z,-5.43
2022-12-18T07:04:21.830Z,-5.48
2022-12-18T07:07:05.252Z,-5.72
2022-12-18T07:09:50.942Z,-5.71
2022-12-18T07:12:34.363Z,-5.40
2022-12-18T07:15:17.962Z,-5.54
2022-12-18T07:18:01.444Z,-5.51
2022-12-18T07:20:45.211Z,-5.72
2022-12-18T07:23:29.497Z,-5.79
2022-12-18T07:26:15.355Z,-5.57
2022-12-18T07:28:59.316Z,-5.33
2022-12-18T07:31:42.840Z,-5.52
2022-12-18T07:34:26.459Z,-5.51
2022-12-18T07:37:09.940Z,-5.53
2022-12-18T07:39:53.397Z,-5.58
2022-12-18T07:42:37.909Z,-5.61
2022-12-18T07:45:21.311Z,-5.45
2022-12-18T07:48:04.966Z,-5.60
2022-12-18T07:50:48.863Z,-5.84
2022-12-18T07:53:34.702Z,-5.79
2022-12-18T07:56:27.148Z,-5.73
2022-12-18T07:59:11.924Z,-5.78
2022-12-18T08:01:55.535Z,-5.56
2022-12-18T08:04:39.079Z,-5.56
2022-12-18T08:07:22.526Z,-5.49
2022-12-18T08:10:07.458Z,-5.47
2022-12-18T08:12:52.634Z,-5.33
2022-12-18T08:15:36.363Z,-5.16
2022-12-18T08:18:19.802Z,-5.35
2022-12-18T08:21:12.472Z,-5.51
2022-12-18T08:24:00.245Z,-5.61
2022-12-18T08:27:00.853Z,-5.47
2022-12-18T08:29:47.312Z,-5.33
2022-12-18T08:32:30.833Z,-5.52
2022-12-18T08:35:18.556Z,-5.37
2022-12-18T08:38:02.252Z,-5.17
2022-12-18T08:40:45.720Z,-5.01
2022-12-18T08:43:48.072Z,-4.77
2022-12-18T08:46:44.046Z,-5.02
2022-12-18T08:49:27.699Z,-4.68
2022-12-18T08:52:11.851Z,-4.84
2022-12-18T08:54:58.196Z,-4.71
2022-12-18T08:57:41.618Z,-4.63
2022-12-18T09:00:25.206Z,-4.78
2022-12-18T09:03:19.809Z,-4.82
2022-12-18T09:06:03.658Z,-4.85
2022-12-18T09:08:47.377Z,-4.65
2022-12-18T09:11:32.913Z,-4.66
2022-12-18T09:14:16.470Z,-4.69
2022-12-18T09:17:00.085Z,-4.39
2022-12-18T09:19:44.296Z,-4.38
2022-12-18T09:22:27.823Z,-4.53
2022-12-18T09:25:11.384Z,-4.54
2022-12-18T09:27:55.343Z,-4.53
2022-12-18T09:30:41.634Z,-4.51
2022-12-18T09:33:25.634Z,-4.43
2022-12-18T09:36:12.343Z,-4.21
2022-12-18T09:38:55.821Z,-4.62
2022-12-18T09:41:47.872Z,-4.54
2022-12-18T09:44:45.484Z,-4.40
2022-12-18T09:47:38.448Z,-4.54
2022-12-18T09:50:41.028Z,-4.55
2022-12-18T09:53:32.673Z,-4.60
2022-12-18T09:56:23.939Z,-4.55
2022-12-18T09:59:15.258Z,-4.32
2022-12-18T10:01:58.944Z,-4.02
2022-12-18T10:04:44.671Z,-4.15
2022-12-18T10:07:48.043Z,-4.40
2022-12-18T10:10:49.835Z,-4.27
2022-12-18T10:13:51.339Z,-3.98
2022-12-18T10:16:52.966Z,-3.96
2022-12-18T10:19:56.638Z,-3.85
2022-12-18T10:23:03.928Z,-3.73
2022-12-18T10:26:06.917Z,-3.70
2022-12-18T10:28:52.709Z,-3.95
2022-12-18T10:31:36.791Z,-3.75
2022-12-18T10:34:20.690Z,-4.03
2022-12-18T10:37:16.948Z,-3.93
2022-12-18T10:40:22.813Z,-4.22
2022-12-18T10:43:14.224Z,-4.42
2022-12-18T10:46:18.146Z,-4.44
2022-12-18T10:49:01.766Z,-4.00
2022-12-18T10:51:45.742Z,-3.97
2022-12-18T10:54:37.144Z,-4.18
2022-12-18T10:57:42.555Z,-4.30
2022-12-18T11:00:31.832Z,-3.74
2022-12-18T11:03:37.077Z,-3.50
2022-12-18T11:06:25.549Z,-3.61
2022-12-18T11:09:25.274Z,-3.82
2022-12-18T11:12:11.832Z,-3.93
2022-12-18T11:15:00.678Z,-4.23
2022-12-18T11:17:45.115Z,-3.84
2022-12-18T11:20:36.882Z,-3.70
2022-12-18T11:23:25.036Z,-3.59
2022-12-18T11:26:09.331Z,-3.83
2022-12-18T11:29:18.395Z,-3.90
2022-12-18T11:32:35.511Z,-3.95
2022-12-18T11:35:48.979Z,-4.05
2022-12-18T11:38:43.491Z,-4.09
2022-12-18T11:42:12.875Z,-3.93
2022-12-18T11:45:32.576Z,-3.88
2022-12-18T11:48:39.190Z,-4.09
2022-12-18T11:51:50.041Z,-3.87
2022-12-18T11:54:33.623Z,-3.69
2022-12-18T11:57:29.033Z,-4.02
2022-12-18T12:00:23.898Z,-3.91
2022-12-18T12:03:25.509Z,-3.80
2022-12-18T12:06:29.498Z,-3.74
2022-12-18T12:09:31.526Z,-3.80
2022-12-18T12:12:54.847Z,-3.89
2022-12-18T12:16:37.980Z,-4.04
2022-12-18T12:19:45.182Z,-3.64
2022-12-18T12:22:48.221Z,-3.68
2022-12-18T12:25:56.137Z,-3.58
2022-12-18T12:28:53.914Z,-3.56
2022-12-18T12:31:43.230Z,-3.37
2022-12-18T12:35:00.269Z,-3.58
2022-12-18T12:38:06.651Z,-3.40
2022-12-18T12:41:04.356Z,-3.40
2022-12-18T12:43:51.587Z,-3.46
2022-12-18T12:46:42.790Z,-3.27
2022-12-18T12:49:37.555Z,-3.42
2022-12-18T12:52:46.887Z,-3.59
2022-12-18T12:55:31.646Z,-3.42
2022-12-18T12:58:32.266Z,-3.33
2022-12-18T13:01:30.234Z,-3.49
2022-12-18T13:04:47.679Z,-3.57
2022-12-18T13:07:47.163Z,-3.45
2022-12-18T13:10:42.952Z,-3.39
2022-12-18T13:13:54.953Z,-3.65
2022-12-18T13:16:39.848Z,-3.69
2022-12-18T13:19:27.415Z,-3.78
2022-12-18T13:22:49.443Z,-3.88
2022-12-18T13:25:38.170Z,-3.90
2022-12-18T13:28:25.227Z,-3.69
2022-12-18T13:31:09.249Z,-3.58
2022-12-18T13:34:26.711Z,-3.74
2022-12-18T13:37:32.761Z,-3.88
2022-12-18T13:40:41.341Z,-3.53
2022-12-18T13:43:40.138Z,-3.40
2022-12-18T13:46:51.281Z,-3.22
2022-12-18T13:49:42.240Z,-3.51
2022-12-18T13:52:34.673Z,-3.71
2022-12-18T13:55:22.147Z,-3.93
2022-12-18T13:58:07.641Z,-3.81
2022-12-18T14:00:51.126Z,-3.97
2022-12-18T14:03:35.915Z,-3.83
2022-12-18T14:06:19.508Z,-3.68
2022-12-18T14:09:04.368Z,-3.56
2022-12-18T14:11:52.699Z,-3.77
2022-12-18T14:14:36.346Z,-3.63
2022-12-18T14:17:20.886Z,-3.65
2022-12-18T14:20:13.691Z,-3.84
2022-12-18T14:22:58.448Z,-4.00
2022-12-18T14:25:48.249Z,-3.88
2022-12-18T14:28:32.679Z,-4.17
2022-12-18T14:31:30.381Z,-4.07
2022-12-18T14:34:18.138Z,-3.99
2022-12-18T14:37:04.848Z,-4.00
2022-12-18T14:40:10.603Z,-3.77
2022-12-18T14:42:54.923Z,-3.73
2022-12-18T14:45:43.316Z,-3.80
2022-12-18T14:58:17.884Z,-3.82
2022-12-18T15:01:48.508Z,-3.91
2022-12-18T15:04:44.579Z,-3.87
2022-12-18T15:07:47.430Z,-4.16
2022-12-18T15:10:37.018Z,-3.87
2022-12-18T15:17:22.446Z,-4.01
2022-12-18T15:20:12.226Z,-3.99
2022-12-18T15:22:55.774Z,-4.15
2022-12-18T15:25:39.555Z,-4.08
2022-12-18T15:28:27.017Z,-4.08
2022-12-18T15:31:10.775Z,-4.18
2022-12-18T15:33:54.200Z,-4.24
2022-12-18T15:36:37.801Z,-4.10
2022-12-18T15:39:21.554Z,-3.70
2022-12-18T15:42:23.519Z,-4.09
2022-12-18T15:45:12.997Z,-4.21
2022-12-18T15:47:56.900Z,-4.40
2022-12-18T15:50:40.402Z,-4.09
2022-12-18T15:53:28.955Z,-3.95
2022-12-18T15:56:32.673Z,-3.99
2022-12-18T15:59:21.026Z,-3.84
2022-12-18T16:02:19.393Z,-3.74
2022-12-18T16:05:03.207Z,-3.91
2022-12-18T16:07:47.721Z,-3.77
2022-12-18T16:10:31.231Z,-3.78
2022-12-18T16:13:19.996Z,-3.99
2022-12-18T16:16:03.521Z,-4.15
2022-12-18T16:18:47.046Z,-4.18
2022-12-18T16:21:33.926Z,-4.17
2022-12-18T16:24:23.919Z,-4.40
2022-12-18T16:27:08.590Z,-4.19
2022-12-18T16:29:52.407Z,-4.00
2022-12-18T16:32:36.052Z,-4.39
2022-12-18T16:35:19.765Z,-4.26
2022-12-18T16:38:03.204Z,-4.37
2022-12-18T16:41:05.254Z,-4.42
2022-12-18T16:43:54.407Z,-4.56
2022-12-18T16:46:40.171Z,-4.55
2022-12-18T16:49:23.770Z,-4.26
2022-12-18T16:52:08.255Z,-4.46
2022-12-18T16:54:51.945Z,-4.40
2022-12-18T16:57:35.458Z,-4.49
2022-12-18T17:00:19.075Z,-4.60
2022-12-18T17:03:02.695Z,-4.64
2022-12-18T17:05:50.111Z,-4.44
2022-12-18T17:08:36.552Z,-4.26
2022-12-18T17:11:20.000Z,-4.65
2022-12-18T17:14:16.717Z,-4.69
2022-12-18T17:17:20.875Z,-4.58
2022-12-18T17:20:04.904Z,-4.63
2022-12-18T17:22:48.944Z,-4.62
2022-12-18T17:25:32.412Z,-4.84
2022-12-18T17:28:16.262Z,-4.92
2022-12-18T17:31:00.533Z,-4.96
2022-12-18T17:33:45.037Z,-4.97
2022-12-18T17:36:29.237Z,-4.97
2022-12-18T17:39:20.045Z,-4.75
2022-12-18T17:42:04.063Z,-4.80
2022-12-18T17:44:48.850Z,-4.87
2022-12-18T17:47:35.097Z,-4.69
2022-12-18T17:50:22.583Z,-4.90
2022-12-18T17:53:08.858Z,-4.56
2022-12-18T17:56:01.985Z,-4.89
2022-12-18T17:58:51.997Z,-5.12
2022-12-18T18:01:43.768Z,-4.79
2022-12-18T18:04:27.840Z,-4.66
2022-12-18T18:07:11.284Z,-4.77
2022-12-18T18:09:54.827Z,-5.02
2022-12-18T18:12:59.297Z,-4.96
2022-12-18T18:16:05.069Z,-5.18
2022-12-18T18:18:52.860Z,-4.98
2022-12-18T18:21:47.234Z,-4.93
2022-12-18T18:24:35.608Z,-4.88
